Time;durP1;ratioP1;P1;durP2;ratioP2;P2;SDS_P1;SDS_P2;PMS_P1;PMS_P2;Temp;Humidity;BMP_temperature;BMP_pressure;BME280_temperature;BME280_humidity;BME280_pressure;Samples;Min_cycle;Max_cycle;Signal;HPM_P1;HPM_P2
2023/03/31 00:00:13;;;;;;;1.58;1.27;;;11.20;99.90;;;;;;5094597;28;20039;-84
2023/03/31 00:02:40;;;;;;;1.50;1.40;;;11.20;99.90;;;;;;5094816;28;20058;-84
2023/03/31 00:05:07;;;;;;;1.17;1.08;;;11.20;99.90;;;;;;5111888;28;20514;-83
2023/03/31 00:07:36;;;;;;;1.10;1.00;;;11.20;99.90;;;;;;5095692;28;20048;-84
2023/03/31 00:10:04;;;;;;;1.17;1.00;;;11.20;99.90;;;;;;5111750;28;20040;-83
2023/03/31 00:12:29;;;;;;;1.30;1.10;;;11.20;99.90;;;;;;5094440;28;20097;-84
2023/03/31 00:14:55;;;;;;;1.20;1.10;;;11.20;99.90;;;;;;5126271;28;20450;-84
2023/03/31 00:17:21;;;;;;;1.80;1.27;;;11.20;99.90;;;;;;5092314;28;20063;-83
2023/03/31 00:19:48;;;;;;;1.50;1.30;;;11.20;99.90;;;;;;5093545;28;20032;-84
2023/03/31 00:22:17;;;;;;;1.25;1.10;;;11.20;99.90;;;;;;5093602;28;20047;-84
2023/03/31 00:24:43;;;;;;;1.63;1.20;;;11.10;99.90;;;;;;5092173;28;20369;-84
2023/03/31 00:27:10;;;;;;;1.10;0.93;;;11.10;99.90;;;;;;5091928;28;20075;-84
2023/03/31 00:29:40;;;;;;;1.20;1.10;;;11.00;99.90;;;;;;5092230;28;20043;-84
2023/03/31 00:32:06;;;;;;;1.00;0.88;;;11.00;99.90;;;;;;5093084;28;20048;-85
2023/03/31 00:34:32;;;;;;;1.13;1.00;;;10.90;99.90;;;;;;5091880;28;20044;-84
2023/03/31 00:37:01;;;;;;;1.35;1.00;;;10.80;99.90;;;;;;5074792;28;20177;-84
2023/03/31 00:39:30;;;;;;;1.05;0.93;;;10.80;99.90;;;;;;5091768;28;20500;-84
2023/03/31 00:41:57;;;;;;;1.70;1.30;;;10.80;99.90;;;;;;5091932;28;20043;-84
2023/03/31 00:44:28;;;;;;;1.10;1.00;;;10.70;99.90;;;;;;5091832;28;20036;-84
2023/03/31 00:47:28;;;;;;;1.13;1.00;;;10.60;99.90;;;;;;5093035;28;20519;-84
2023/03/31 00:49:56;;;;;;;1.40;1.20;;;10.60;99.90;;;;;;5071070;28;20095;-84
2023/03/31 00:52:26;;;;;;;1.35;1.13;;;10.60;99.90;;;;;;5054766;28;20071;-84
2023/03/31 00:54:58;;;;;;;1.00;0.82;;;10.50;99.90;;;;;;5074433;28;20040;-84
2023/03/31 00:57:27;;;;;;;1.27;1.13;;;10.50;99.90;;;;;;5074285;28;20123;-84
2023/03/31 00:59:57;;;;;;;1.50;1.10;;;10.40;99.90;;;;;;5057527;28;20040;-84
2023/03/31 01:02:26;;;;;;;1.35;1.02;;;10.40;99.90;;;;;;5074320;28;20079;-84
2023/03/31 01:05:00;;;;;;;1.25;0.98;;;10.40;99.90;;;;;;5074178;28;20122;-84
2023/03/31 01:07:32;;;;;;;0.95;0.85;;;10.40;99.90;;;;;;5057321;28;20040;-84
2023/03/31 01:10:00;;;;;;;1.17;1.08;;;10.40;99.90;;;;;;5074187;28;20044;-84
2023/03/31 01:12:26;;;;;;;1.27;1.00;;;10.30;99.90;;;;;;5074684;28;20409;-84
2023/03/31 01:14:54;;;;;;;1.20;1.10;;;10.20;99.90;;;;;;5074097;28;20040;-84
2023/03/31 01:17:21;;;;;;;1.73;1.10;;;10.20;99.90;;;;;;5057384;28;20051;-84
2023/03/31 01:20:13;;;;;;;1.10;1.00;;;10.20;99.90;;;;;;5040686;28;20058;-84
2023/03/31 01:22:48;;;;;;;1.10;1.00;;;10.20;99.90;;;;;;5073997;28;20040;-84
2023/03/31 01:25:51;;;;;;;1.02;0.95;;;10.10;99.90;;;;;;5071410;28;20051;-83
2023/03/31 01:28:45;;;;;;;1.15;0.90;;;10.20;99.90;;;;;;5095496;28;20043;-84
2023/03/31 01:31:32;;;;;;;1.30;1.10;;;10.10;99.90;;;;;;5096219;28;20036;-84
2023/03/31 01:34:03;;;;;;;1.45;1.02;;;10.10;99.90;;;;;;5096480;28;20036;-84
2023/03/31 01:36:47;;;;;;;1.65;1.00;;;10.10;99.90;;;;;;5096816;28;20384;-84
2023/03/31 01:39:32;;;;;;;1.38;1.00;;;10.10;99.90;;;;;;5094737;28;20098;-84
2023/03/31 01:42:33;;;;;;;1.20;1.10;;;10.10;99.90;;;;;;5095205;28;20040;-84
2023/03/31 01:45:50;;;;;;;1.20;1.10;;;10.10;99.90;;;;;;5094601;28;20048;-84
2023/03/31 01:48:24;;;;;;;1.38;1.00;;;10.10;99.90;;;;;;5057006;28;20044;-84
2023/03/31 01:51:01;;;;;;;1.27;1.10;;;10.10;99.90;;;;;;5040832;28;20053;-84
2023/03/31 01:53:39;;;;;;;0.70;0.70;;;10.10;99.90;;;;;;5073367;28;20036;-84
2023/03/31 01:56:14;;;;;;;1.55;1.13;;;10.10;99.90;;;;;;5056857;28;20421;-84
2023/03/31 01:58:49;;;;;;;1.20;1.10;;;10.10;99.90;;;;;;5073395;28;20155;-84
2023/03/31 02:01:19;;;;;;;0.90;0.90;;;10.10;99.90;;;;;;5073208;28;20100;-84
2023/03/31 02:03:56;;;;;;;1.17;1.00;;;10.10;99.90;;;;;;5039337;28;20110;-85
2023/03/31 02:06:27;;;;;;;1.17;1.08;;;10.20;99.90;;;;;;5056538;28;20524;-84
2023/03/31 02:08:59;;;;;;;1.10;0.98;;;10.20;99.90;;;;;;5056851;28;20040;-83
2023/03/31 02:11:27;;;;;;;1.10;1.00;;;10.20;99.90;;;;;;5056498;28;20419;-84
2023/03/31 02:13:54;;;;;;;1.00;0.90;;;10.20;99.90;;;;;;5056195;28;20040;-84
2023/03/31 02:16:25;;;;;;;0.80;0.80;;;10.20;99.90;;;;;;5056068;28;20049;-84
2023/03/31 02:18:53;;;;;;;0.82;0.82;;;10.10;99.90;;;;;;5039718;28;20090;-84
2023/03/31 02:21:21;;;;;;;1.13;1.00;;;10.10;99.90;;;;;;5039374;28;20044;-84
2023/03/31 02:23:49;;;;;;;1.27;0.90;;;10.10;99.90;;;;;;5072765;28;20044;-84
2023/03/31 02:26:21;;;;;;;1.10;0.85;;;10.00;99.90;;;;;;5076881;28;20050;-84
2023/03/31 02:28:47;;;;;;;0.75;0.70;;;10.10;99.90;;;;;;5077014;28;20529;-84
2023/03/31 02:31:28;;;;;;;0.80;0.80;;;10.10;99.90;;;;;;5093666;28;20075;-83
2023/03/31 02:33:54;;;;;;;1.25;0.90;;;10.10;99.90;;;;;;5093863;28;20373;-84
2023/03/31 02:36:22;;;;;;;0.80;0.80;;;10.10;99.90;;;;;;5095045;28;20044;-84
2023/03/31 02:38:55;;;;;;;0.98;0.80;;;10.20;99.90;;;;;;5094583;28;20052;-84
2023/03/31 02:41:21;;;;;;;0.88;0.70;;;10.10;99.90;;;;;;5110746;28;20131;-84
2023/03/31 02:43:47;;;;;;;0.90;0.80;;;10.00;99.90;;;;;;5094968;28;20051;-84
2023/03/31 02:46:12;;;;;;;0.75;0.75;;;10.10;99.90;;;;;;5094885;28;20118;-84
2023/03/31 02:48:44;;;;;;;1.15;0.90;;;10.00;99.90;;;;;;5093385;28;20135;-84
2023/03/31 02:51:23;;;;;;;1.00;0.90;;;10.00;99.90;;;;;;5076575;28;20052;-84
2023/03/31 02:54:01;;;;;;;0.73;0.73;;;10.00;99.90;;;;;;5094784;28;20040;-84
2023/03/31 02:57:06;;;;;;;1.00;0.70;;;10.10;99.90;;;;;;5094483;28;20468;-84
2023/03/31 02:59:40;;;;;;;0.90;0.80;;;10.10;99.90;;;;;;5094245;28;20032;-83
2023/03/31 03:02:19;;;;;;;0.85;0.85;;;10.10;99.90;;;;;;5094638;28;20048;-84
2023/03/31 03:04:57;;;;;;;0.73;0.73;;;10.10;99.90;;;;;;5076316;28;20050;-84
2023/03/31 03:07:46;;;;;;;1.15;1.05;;;10.10;99.90;;;;;;5094534;28;20127;-84
2023/03/31 03:10:25;;;;;;;0.80;0.80;;;10.10;99.90;;;;;;5093024;28;20048;-84
2023/03/31 03:13:30;;;;;;;0.80;0.80;;;10.20;99.90;;;;;;5076235;28;20491;-84
2023/03/31 03:16:20;;;;;;;0.70;0.70;;;10.10;99.90;;;;;;5084502;28;20052;-84
2023/03/31 03:19:01;;;;;;;0.70;0.70;;;10.10;99.90;;;;;;5093950;28;20040;-84
2023/03/31 03:21:27;;;;;;;0.73;0.73;;;10.10;99.90;;;;;;5094630;28;20447;-84
2023/03/31 03:23:53;;;;;;;0.80;0.80;;;10.20;99.90;;;;;;5093989;28;20089;-84
2023/03/31 03:26:20;;;;;;;0.77;0.77;;;10.20;99.90;;;;;;5092637;28;20407;-84
2023/03/31 03:28:46;;;;;;;0.80;0.77;;;10.20;99.90;;;;;;5092984;28;20047;-84
2023/03/31 03:31:12;;;;;;;0.70;0.70;;;10.30;99.90;;;;;;5092667;28;20051;-84
2023/03/31 03:33:38;;;;;;;0.70;0.70;;;10.30;99.90;;;;;;5094127;28;20036;-84
2023/03/31 03:36:04;;;;;;;0.73;0.73;;;10.30;99.90;;;;;;5093951;28;20040;-83
2023/03/31 03:38:30;;;;;;;0.65;0.63;;;10.30;99.90;;;;;;5092335;28;20040;-84
2023/03/31 03:40:55;;;;;;;0.60;0.60;;;10.30;99.90;;;;;;5094056;28;20416;-84
2023/03/31 03:43:21;;;;;;;0.70;0.70;;;10.30;99.90;;;;;;5094047;28;20039;-84
2023/03/31 03:45:51;;;;;;;0.70;0.70;;;10.30;99.90;;;;;;5094078;28;20097;-84
2023/03/31 03:48:18;;;;;;;0.85;0.70;;;10.30;99.90;;;;;;5094012;28;20032;-83
2023/03/31 03:50:47;;;;;;;0.80;0.80;;;10.40;99.90;;;;;;5075468;28;20467;-85
2023/03/31 03:53:13;;;;;;;0.70;0.70;;;10.30;99.90;;;;;;5075548;28;20071;-84
2023/03/31 03:55:39;;;;;;;0.60;0.60;;;10.30;99.90;;;;;;5075466;28;20123;-84
2023/03/31 03:58:05;;;;;;;0.60;0.60;;;10.30;99.90;;;;;;5093795;28;20071;-84
2023/03/31 04:00:31;;;;;;;0.57;0.55;;;10.40;99.90;;;;;;5092079;28;20036;-84
2023/03/31 04:02:56;;;;;;;0.65;0.65;;;10.30;99.90;;;;;;5092274;28;20450;-84
2023/03/31 04:05:22;;;;;;;0.77;0.77;;;10.40;99.90;;;;;;5092403;28;20036;-85
2023/03/31 04:07:48;;;;;;;0.70;0.70;;;10.40;99.90;;;;;;5092161;28;20483;-84
2023/03/31 04:10:13;;;;;;;0.77;0.60;;;10.30;99.90;;;;;;5092080;28;20036;-84
2023/03/31 04:12:39;;;;;;;0.50;0.50;;;10.20;99.90;;;;;;5092293;28;20040;-84
2023/03/31 04:15:05;;;;;;;0.60;0.60;;;10.30;99.90;;;;;;5126648;28;20400;-84
2023/03/31 04:17:31;;;;;;;0.60;0.60;;;10.20;99.90;;;;;;5093701;28;20091;-84
2023/03/31 04:20:04;;;;;;;0.63;0.63;;;10.20;99.90;;;;;;5091969;28;20484;-84
2023/03/31 04:22:34;;;;;;;0.63;0.63;;;10.10;99.90;;;;;;5092271;28;20485;-84
2023/03/31 04:25:09;;;;;;;0.63;0.63;;;10.10;99.90;;;;;;5075291;28;20036;-84
2023/03/31 04:27:35;;;;;;;0.80;0.80;;;10.20;99.90;;;;;;5094916;28;20488;-84
2023/03/31 04:30:01;;;;;;;0.80;0.80;;;10.10;99.90;;;;;;5097335;28;20047;-84
2023/03/31 04:32:27;;;;;;;0.70;0.70;;;10.00;99.90;;;;;;5096217;28;20040;-84
2023/03/31 04:35:01;;;;;;;0.70;0.70;;;10.10;99.90;;;;;;5097548;28;20044;-84
2023/03/31 04:37:33;;;;;;;0.80;0.80;;;10.10;99.90;;;;;;5095749;28;20080;-84
2023/03/31 04:40:06;;;;;;;0.63;0.63;;;10.00;99.90;;;;;;5078746;28;20488;-82
2023/03/31 04:42:32;;;;;;;0.63;0.63;;;10.00;99.90;;;;;;5096078;28;20040;-81
2023/03/31 04:44:58;;;;;;;0.80;0.80;;;10.10;99.90;;;;;;5096050;28;20043;-83
2023/03/31 04:47:26;;;;;;;0.50;0.50;;;10.00;99.90;;;;;;5095548;28;20075;-82
2023/03/31 04:49:52;;;;;;;0.68;0.68;;;10.00;99.90;;;;;;5095713;28;20048;-75
2023/03/31 04:52:18;;;;;;;0.60;0.60;;;10.00;99.90;;;;;;5097071;28;20043;-77
2023/03/31 04:54:43;;;;;;;0.73;0.73;;;10.00;99.90;;;;;;5129566;27;20042;-76
2023/03/31 04:57:10;;;;;;;0.63;0.63;;;10.00;99.90;;;;;;5095422;28;20130;-76
2023/03/31 04:59:35;;;;;;;0.70;0.70;;;10.00;99.90;;;;;;5078340;28;20043;-76
2023/03/31 05:02:01;;;;;;;0.52;0.52;;;10.00;99.90;;;;;;5095492;28;20040;-75
2023/03/31 05:04:26;;;;;;;0.68;0.68;;;10.00;99.90;;;;;;5096849;28;20079;-78
2023/03/31 05:06:52;;;;;;;0.77;0.70;;;10.10;99.90;;;;;;5095106;28;20400;-77
2023/03/31 05:09:19;;;;;;;0.60;0.60;;;10.10;99.90;;;;;;5095573;28;20043;-77
2023/03/31 05:11:45;;;;;;;0.60;0.60;;;10.10;99.90;;;;;;5096662;28;20048;-77
2023/03/31 05:14:10;;;;;;;0.60;0.60;;;10.20;99.90;;;;;;5095111;28;20108;-77
2023/03/31 05:16:36;;;;;;;0.60;0.60;;;10.20;99.90;;;;;;5096595;28;20111;-77
2023/03/31 05:19:03;;;;;;;0.55;0.55;;;10.20;99.90;;;;;;5078282;28;20040;-72
2023/03/31 05:21:30;;;;;;;0.65;0.65;;;10.20;99.90;;;;;;5095186;28;20044;-69
2023/03/31 05:23:56;;;;;;;0.80;0.80;;;10.30;99.90;;;;;;5096562;28;20079;-75
2023/03/31 05:26:24;;;;;;;0.70;0.70;;;10.30;99.90;;;;;;5094896;28;20036;-79
2023/03/31 05:28:53;;;;;;;0.70;0.70;;;10.30;99.90;;;;;;5096547;28;20054;-79
2023/03/31 05:31:19;;;;;;;0.80;0.80;;;10.30;99.90;;;;;;5078220;28;20417;-79
2023/03/31 05:33:45;;;;;;;0.70;0.70;;;10.30;99.90;;;;;;5077950;28;20101;-79
2023/03/31 05:36:13;;;;;;;0.70;0.70;;;10.30;99.90;;;;;;5077939;28;20032;-79
2023/03/31 05:38:39;;;;;;;0.70;0.70;;;10.30;99.90;;;;;;5076850;28;20048;-79
2023/03/31 05:41:06;;;;;;;0.63;0.63;;;10.30;99.90;;;;;;5095726;28;20044;-79
2023/03/31 05:43:32;;;;;;;0.60;0.60;;;10.30;99.90;;;;;;5095843;28;20036;-80
2023/03/31 05:45:57;;;;;;;0.60;0.60;;;10.20;99.90;;;;;;5096037;28;20085;-79
2023/03/31 05:48:23;;;;;;;0.77;0.77;;;10.40;99.90;;;;;;5096078;28;20047;-80
2023/03/31 05:50:49;;;;;;;0.63;0.63;;;10.30;99.90;;;;;;5094926;28;20036;-79
2023/03/31 05:53:14;;;;;;;0.80;0.80;;;10.30;99.90;;;;;;5094439;28;20040;-79
2023/03/31 05:55:40;;;;;;;0.60;0.60;;;10.30;99.90;;;;;;5094647;28;20055;-79
2023/03/31 05:58:07;;;;;;;0.80;0.60;;;10.30;99.90;;;;;;5077477;28;20475;-80
2023/03/31 06:00:35;;;;;;;0.73;0.73;;;10.40;99.90;;;;;;5095732;28;20040;-79
2023/03/31 06:03:00;;;;;;;0.50;0.50;;;10.30;99.90;;;;;;5094266;28;20036;-79
2023/03/31 06:05:29;;;;;;;0.60;0.60;;;10.40;99.90;;;;;;5077295;28;20032;-79
2023/03/31 06:07:55;;;;;;;0.73;0.70;;;10.40;99.90;;;;;;5077309;28;20126;-80
2023/03/31 06:10:21;;;;;;;0.68;0.68;;;10.30;99.90;;;;;;5094406;28;20071;-80
2023/03/31 06:12:46;;;;;;;0.60;0.60;;;10.40;99.90;;;;;;5094515;28;20040;-79
2023/03/31 06:15:12;;;;;;;0.50;0.50;;;10.40;99.90;;;;;;5094013;28;20395;-80
2023/03/31 06:17:38;;;;;;;0.50;0.50;;;10.40;99.90;;;;;;5077135;28;20039;-80
2023/03/31 06:20:04;;;;;;;0.47;0.47;;;10.30;99.90;;;;;;5094172;28;20477;-79
2023/03/31 06:22:30;;;;;;;0.60;0.60;;;10.40;99.90;;;;;;5093560;28;20051;-79
2023/03/31 06:24:56;;;;;;;0.60;0.60;;;10.30;99.90;;;;;;5094999;28;20127;-80
2023/03/31 06:27:22;;;;;;;0.50;0.50;;;10.40;99.90;;;;;;5076832;28;20543;-73
2023/03/31 06:29:49;;;;;;;0.55;0.55;;;10.40;99.90;;;;;;5093664;28;20048;-73
2023/03/31 06:32:14;;;;;;;0.60;0.60;;;10.40;99.90;;;;;;5093636;28;20086;-74
2023/03/31 06:34:40;;;;;;;0.70;0.70;;;10.30;99.90;;;;;;5093494;28;20072;-74
2023/03/31 06:37:06;;;;;;;0.50;0.50;;;10.40;99.90;;;;;;5127479;27;20098;-74
2023/03/31 06:39:32;;;;;;;0.60;0.60;;;10.40;99.90;;;;;;5093692;28;20040;-73
2023/03/31 06:41:57;;;;;;;0.60;0.60;;;10.40;99.90;;;;;;5127587;27;20498;-73
2023/03/31 06:44:23;;;;;;;0.60;0.60;;;10.40;99.90;;;;;;5093622;28;20126;-73
2023/03/31 06:46:49;;;;;;;0.60;0.60;;;10.50;99.90;;;;;;5093665;28;20586;-73
2023/03/31 06:49:15;;;;;;;0.52;0.52;;;10.50;99.90;;;;;;5127698;27;20539;-73
2023/03/31 06:51:40;;;;;;;0.60;0.60;;;10.40;99.90;;;;;;5076357;28;20089;-73
2023/03/31 06:54:06;;;;;;;0.60;0.60;;;10.40;99.90;;;;;;5094768;28;20123;-74
2023/03/31 06:56:32;;;;;;;0.57;0.57;;;10.40;99.90;;;;;;5094670;28;20507;-74
2023/03/31 06:58:57;;;;;;;0.50;0.50;;;10.40;99.90;;;;;;5094607;28;20115;-74
2023/03/31 07:01:23;;;;;;;0.60;0.60;;;10.40;99.90;;;;;;5094283;28;20036;-66
2023/03/31 07:03:48;;;;;;;0.50;0.50;;;10.40;99.90;;;;;;5076013;28;20055;-68
2023/03/31 07:06:14;;;;;;;0.60;0.60;;;10.50;99.90;;;;;;5092975;28;20075;-70
2023/03/31 07:08:40;;;;;;;0.50;0.50;;;10.40;99.90;;;;;;5092885;28;20119;-74
2023/03/31 07:11:05;;;;;;;0.60;0.60;;;10.50;99.90;;;;;;5092829;28;20052;-74
2023/03/31 07:13:31;;;;;;;0.50;0.50;;;10.40;99.90;;;;;;5075993;28;20051;-73
2023/03/31 07:15:57;;;;;;;0.60;0.60;;;10.50;99.90;;;;;;5094330;28;20096;-73
2023/03/31 07:18:30;;;;;;;0.80;0.80;;;10.40;99.90;;;;;;5094731;28;20032;-73
2023/03/31 07:20:57;;;;;;;0.70;0.70;;;10.30;99.90;;;;;;5092720;28;20123;-73
2023/03/31 07:23:22;;;;;;;0.68;0.68;;;10.30;99.90;;;;;;5094261;28;20028;-73
2023/03/31 07:25:48;;;;;;;0.60;0.60;;;10.40;99.90;;;;;;5094152;28;20483;-73
2023/03/31 07:28:14;;;;;;;0.60;0.60;;;10.40;99.90;;;;;;5092567;28;20036;-73
2023/03/31 07:30:41;;;;;;;0.50;0.50;;;10.30;99.90;;;;;;5094673;28;20059;-74
2023/03/31 07:33:06;;;;;;;0.50;0.50;;;10.30;99.90;;;;;;5093748;28;20044;-73
2023/03/31 07:35:32;;;;;;;0.70;0.70;;;10.30;99.90;;;;;;5094112;28;20491;-73
2023/03/31 07:37:58;;;;;;;0.45;0.45;;;10.40;99.90;;;;;;5093642;28;20134;-73
2023/03/31 07:40:26;;;;;;;0.50;0.50;;;10.50;99.90;;;;;;5092441;28;20048;-73
2023/03/31 07:42:52;;;;;;;0.47;0.47;;;10.50;99.90;;;;;;5093958;28;20032;-74
2023/03/31 07:45:23;;;;;;;0.50;0.50;;;10.40;99.90;;;;;;5092331;28;20040;-72
2023/03/31 07:47:49;;;;;;;0.52;0.52;;;10.50;99.90;;;;;;5092378;28;20105;-71
2023/03/31 07:50:15;;;;;;;0.60;0.60;;;10.50;99.90;;;;;;5092593;28;20044;-71
2023/03/31 07:52:41;;;;;;;0.70;0.70;;;10.50;99.90;;;;;;5092196;28;20055;-72
2023/03/31 07:55:08;;;;;;;0.50;0.50;;;10.50;99.90;;;;;;5093782;28;20044;-73
2023/03/31 07:57:35;;;;;;;0.55;0.55;;;10.50;99.90;;;;;;5093736;28;20036;-70
2023/03/31 08:00:05;;;;;;;0.70;0.70;;;10.50;99.90;;;;;;5126164;27;20111;-85
2023/03/31 08:02:30;;;;;;;0.50;0.50;;;10.60;99.90;;;;;;5093260;28;20096;-75
2023/03/31 08:04:56;;;;;;;0.60;0.60;;;10.60;99.90;;;;;;5126199;28;20463;-75
2023/03/31 08:07:22;;;;;;;0.70;0.55;;;10.60;99.90;;;;;;5092417;28;20036;-75
2023/03/31 08:09:48;;;;;;;0.60;0.60;;;10.60;99.90;;;;;;5075222;28;20133;-75
2023/03/31 08:12:14;;;;;;;0.50;0.50;;;10.60;99.90;;;;;;5093495;28;20040;-75
2023/03/31 08:14:40;;;;;;;0.60;0.60;;;10.80;99.90;;;;;;5093491;28;20035;-74
2023/03/31 08:17:06;;;;;;;0.60;0.60;;;10.80;99.90;;;;;;5092238;28;20044;-75
2023/03/31 08:19:31;;;;;;;0.60;0.60;;;10.70;99.90;;;;;;5126004;28;20043;-75
2023/03/31 08:21:57;;;;;;;0.68;0.68;;;10.80;99.90;;;;;;5092234;28;20129;-75
2023/03/31 08:24:22;;;;;;;0.55;0.55;;;10.90;99.90;;;;;;5093224;28;20526;-75
2023/03/31 08:26:48;;;;;;;0.52;0.52;;;10.90;99.90;;;;;;5093179;28;20036;-74
2023/03/31 08:29:14;;;;;;;0.50;0.50;;;11.00;99.90;;;;;;5093461;28;20131;-75
2023/03/31 08:31:39;;;;;;;0.60;0.60;;;10.80;99.90;;;;;;5093375;28;20043;-75
2023/03/31 08:34:05;;;;;;;0.55;0.55;;;10.80;99.90;;;;;;5091810;28;20087;-75
2023/03/31 08:36:32;;;;;;;0.50;0.50;;;11.00;99.90;;;;;;5091867;28;20187;-74
2023/03/31 08:38:57;;;;;;;0.68;0.68;;;10.90;99.90;;;;;;5091526;28;20101;-74
2023/03/31 08:41:49;;;;;;;0.57;0.57;;;11.00;99.90;;;;;;5093273;28;20039;-74
2023/03/31 08:44:47;;;;;;;0.60;0.60;;;10.90;99.90;;;;;;5093322;28;20127;-75
2023/03/31 08:47:21;;;;;;;0.70;0.70;;;11.10;99.90;;;;;;5070763;28;20048;-75
2023/03/31 08:49:54;;;;;;;0.60;0.60;;;11.00;99.90;;;;;;5054128;28;20058;-74
2023/03/31 08:52:28;;;;;;;0.50;0.50;;;11.00;99.90;;;;;;5070826;28;20114;-75
2023/03/31 08:55:05;;;;;;;0.65;0.65;;;10.90;99.90;;;;;;5070747;28;20040;-73
2023/03/31 08:57:51;;;;;;;0.55;0.55;;;10.90;99.90;;;;;;5037546;28;20058;-74
2023/03/31 09:00:18;;;;;;;0.70;0.70;;;10.80;99.90;;;;;;5070231;28;20520;-74
2023/03/31 09:03:05;;;;;;;0.47;0.47;;;10.70;99.90;;;;;;5053820;28;20049;-73
2023/03/31 09:05:41;;;;;;;0.63;0.63;;;10.80;99.90;;;;;;5087830;28;20122;-73
2023/03/31 09:08:35;;;;;;;0.68;0.68;;;10.70;99.90;;;;;;5070524;28;20044;-72
2023/03/31 09:11:26;;;;;;;0.57;0.57;;;10.90;99.90;;;;;;5054098;28;20075;-72
2023/03/31 09:14:08;;;;;;;0.57;0.57;;;10.90;99.90;;;;;;5054065;28;20040;-73
2023/03/31 09:17:04;;;;;;;0.60;0.60;;;11.00;99.90;;;;;;5057226;28;20090;-73
2023/03/31 09:19:39;;;;;;;0.57;0.57;;;11.10;99.90;;;;;;5057301;28;20067;-73
2023/03/31 09:22:13;;;;;;;0.50;0.50;;;11.20;99.90;;;;;;5057204;28;20048;-73
2023/03/31 09:24:57;;;;;;;0.50;0.50;;;11.20;99.90;;;;;;5081680;28;20514;-73
2023/03/31 09:27:25;;;;;;;0.43;0.43;;;11.20;99.90;;;;;;5096142;28;20085;-73
2023/03/31 09:30:01;;;;;;;0.57;0.57;;;11.30;99.90;;;;;;5094833;28;20152;-73
2023/03/31 09:32:32;;;;;;;0.60;0.60;;;11.30;99.90;;;;;;5095162;28;20058;-73
2023/03/31 09:35:11;;;;;;;0.60;0.60;;;11.30;99.90;;;;;;5094740;28;20111;-73
2023/03/31 09:37:37;;;;;;;0.50;0.50;;;11.40;99.90;;;;;;5096306;28;20563;-72
2023/03/31 09:40:06;;;;;;;0.52;0.52;;;11.30;99.90;;;;;;5095808;28;20134;-73
2023/03/31 09:42:34;;;;;;;0.50;0.50;;;11.30;99.90;;;;;;5095960;28;20389;-73
2023/03/31 09:45:00;;;;;;;0.40;0.40;;;11.30;99.90;;;;;;5096062;28;20047;-73
2023/03/31 09:47:38;;;;;;;0.50;0.50;;;11.20;99.90;;;;;;5096071;28;20044;-73
2023/03/31 09:50:06;;;;;;;0.57;0.57;;;11.30;99.90;;;;;;5094415;28;20047;-73
2023/03/31 09:52:36;;;;;;;0.40;0.40;;;11.20;99.90;;;;;;5094431;28;20555;-73
2023/03/31 09:55:09;;;;;;;0.45;0.45;;;11.30;99.90;;;;;;5095931;28;20040;-73
2023/03/31 09:57:38;;;;;;;0.50;0.50;;;11.30;99.90;;;;;;5095918;28;20110;-73
2023/03/31 10:00:16;;;;;;;0.50;0.50;;;11.10;99.90;;;;;;5094161;28;20048;-73
2023/03/31 10:02:50;;;;;;;0.40;0.40;;;11.20;99.90;;;;;;5094440;28;20107;-73
2023/03/31 10:05:35;;;;;;;0.40;0.40;;;11.30;99.90;;;;;;5095729;28;20126;-73
2023/03/31 10:08:15;;;;;;;0.40;0.40;;;11.20;99.90;;;;;;5095630;28;20089;-73
2023/03/31 10:11:05;;;;;;;0.40;0.40;;;11.20;99.90;;;;;;5095588;28;20036;-73
2023/03/31 10:14:00;;;;;;;0.47;0.47;;;11.20;99.90;;;;;;5092520;28;20466;-73
2023/03/31 10:16:48;;;;;;;0.40;0.40;;;11.40;99.90;;;;;;5095470;28;20055;-73
2023/03/31 10:19:30;;;;;;;0.40;0.40;;;11.20;99.90;;;;;;5095359;28;20142;-73
2023/03/31 10:22:15;;;;;;;0.40;0.40;;;11.30;99.90;;;;;;5094058;28;20048;-73
2023/03/31 10:24:43;;;;;;;0.30;0.30;;;11.50;99.90;;;;;;5093807;28;20131;-73
2023/03/31 10:27:22;;;;;;;0.50;0.50;;;11.50;99.90;;;;;;5095099;28;20036;-73
2023/03/31 10:29:54;;;;;;;0.40;0.40;;;11.50;99.90;;;;;;5076765;28;20040;-73
2023/03/31 10:32:32;;;;;;;0.47;0.47;;;11.60;99.90;;;;;;5093708;28;20048;-73
2023/03/31 10:35:05;;;;;;;0.40;0.40;;;11.60;99.90;;;;;;5095160;28;20376;-73
2023/03/31 10:37:31;;;;;;;0.40;0.40;;;11.70;99.90;;;;;;5094848;28;20178;-73
2023/03/31 10:40:19;;;;;;;0.35;0.35;;;11.70;99.90;;;;;;5094907;28;20114;-73
2023/03/31 10:42:49;;;;;;;0.40;0.40;;;11.80;99.90;;;;;;5095084;28;20400;-73
2023/03/31 10:45:26;;;;;;;0.32;0.32;;;11.90;99.90;;;;;;5094958;28;20040;-73
2023/03/31 10:47:57;;;;;;;0.30;0.30;;;12.00;99.90;;;;;;5094880;28;20039;-73
2023/03/31 10:50:34;;;;;;;0.40;0.40;;;11.90;99.90;;;;;;5094903;28;20139;-73
2023/03/31 10:53:09;;;;;;;0.32;0.32;;;11.90;99.90;;;;;;5094789;28;20039;-73
2023/03/31 10:56:06;;;;;;;0.40;0.40;;;12.00;99.90;;;;;;5094474;28;20480;-73
2023/03/31 10:58:53;;;;;;;0.40;0.40;;;12.10;99.90;;;;;;5072080;28;20049;-73
2023/03/31 11:01:36;;;;;;;0.50;0.50;;;12.00;99.90;;;;;;5072546;28;20044;-73
2023/03/31 11:04:26;;;;;;;0.40;0.40;;;12.10;99.90;;;;;;5072205;28;20531;-73
2023/03/31 11:07:28;;;;;;;0.30;0.30;;;12.00;99.90;;;;;;5071985;28;20068;-73
2023/03/31 11:10:21;;;;;;;0.40;0.40;;;12.10;99.90;;;;;;5030621;28;20122;-73
2023/03/31 11:12:58;;;;;;;0.40;0.40;;;12.10;99.90;;;;;;5055396;28;20135;-73
2023/03/31 11:15:26;;;;;;;0.43;0.43;;;12.20;99.90;;;;;;5072509;28;20049;-73
2023/03/31 11:18:13;;;;;;;0.50;0.50;;;12.10;99.90;;;;;;5071763;28;20381;-73
2023/03/31 11:21:00;;;;;;;0.43;0.43;;;12.00;99.90;;;;;;5071587;28;20047;-73
2023/03/31 11:23:28;;;;;;;0.40;0.40;;;11.80;99.90;;;;;;5071815;28;20055;-73
2023/03/31 11:26:02;;;;;;;0.40;0.40;;;11.90;99.90;;;;;;5071552;28;20047;-73
2023/03/31 11:28:49;;;;;;;0.40;0.40;;;12.00;99.90;;;;;;5071607;28;20063;-73
2023/03/31 11:31:21;;;;;;;0.40;0.40;;;12.10;99.90;;;;;;5071501;28;20044;-73
2023/03/31 11:34:00;;;;;;;0.50;0.50;;;12.20;99.90;;;;;;5071447;28;20040;-73
2023/03/31 11:36:48;;;;;;;0.50;0.50;;;12.30;99.90;;;;;;5089410;28;20060;-73
2023/03/31 11:39:22;;;;;;;0.50;0.50;;;12.50;99.90;;;;;;5093947;28;20073;-73
2023/03/31 11:42:12;;;;;;;0.50;0.50;;;12.60;99.90;;;;;;5092710;28;20126;-73
2023/03/31 11:44:51;;;;;;;0.45;0.45;;;12.80;99.90;;;;;;5092403;28;20097;-73
2023/03/31 11:47:27;;;;;;;0.43;0.43;;;12.90;99.90;;;;;;5093435;28;20352;-73
2023/03/31 11:49:59;;;;;;;0.60;0.60;;;13.00;99.90;;;;;;5093834;28;20036;-73
2023/03/31 11:52:51;;;;;;;0.40;0.40;;;13.10;99.90;;;;;;5092586;28;20073;-73
2023/03/31 11:55:20;;;;;;;0.40;0.40;;;13.00;99.90;;;;;;5092546;28;20040;-73
2023/03/31 11:58:09;;;;;;;0.50;0.50;;;12.90;99.90;;;;;;5092477;28;20491;-73
2023/03/31 12:00:42;;;;;;;0.30;0.30;;;13.00;99.90;;;;;;5093670;28;20036;-73
2023/03/31 12:03:21;;;;;;;0.50;0.50;;;12.80;99.90;;;;;;5092163;28;20070;-73
2023/03/31 12:06:16;;;;;;;0.47;0.47;;;12.80;99.90;;;;;;5093698;28;20051;-73
2023/03/31 12:08:57;;;;;;;0.40;0.40;;;12.80;99.90;;;;;;5090908;28;20127;-73
2023/03/31 12:11:50;;;;;;;0.55;0.55;;;12.90;99.90;;;;;;5092029;28;20089;-73
2023/03/31 12:14:22;;;;;;;0.50;0.50;;;13.00;99.90;;;;;;5093000;28;20131;-73
2023/03/31 12:17:13;;;;;;;0.50;0.50;;;13.20;99.90;;;;;;5092062;28;20052;-73
2023/03/31 12:19:56;;;;;;;0.45;0.45;;;13.40;99.90;;;;;;5093485;28;20036;-73
2023/03/31 12:22:30;;;;;;;0.47;0.47;;;13.50;99.90;;;;;;5093513;28;20476;-73
2023/03/31 12:24:55;;;;;;;0.40;0.40;;;13.60;99.90;;;;;;5092204;28;20036;-73
2023/03/31 12:27:40;;;;;;;0.50;0.50;;;13.60;99.90;;;;;;5092026;28;20499;-73
2023/03/31 12:30:06;;;;;;;0.60;0.60;;;13.60;99.90;;;;;;5093420;28;20044;-73
2023/03/31 12:32:44;;;;;;;0.50;0.50;;;13.70;99.90;;;;;;5093456;28;20119;-73
2023/03/31 12:35:23;;;;;;;0.60;0.60;;;13.60;99.90;;;;;;5092235;28;20044;-73
2023/03/31 12:37:52;;;;;;;0.50;0.50;;;13.60;99.90;;;;;;5092295;28;20125;-73
2023/03/31 12:40:38;;;;;;;0.50;0.50;;;13.60;99.90;;;;;;5091713;28;20059;-73
2023/03/31 12:43:22;;;;;;;0.57;0.57;;;13.50;99.90;;;;;;5092073;28;20040;-73
2023/03/31 12:45:48;;;;;;;0.50;0.50;;;13.60;99.90;;;;;;5093285;28;20040;-73
2023/03/31 12:48:37;;;;;;;0.45;0.45;;;13.50;99.90;;;;;;5092372;28;20035;-73
2023/03/31 12:51:14;;;;;;;0.55;0.55;;;13.70;99.90;;;;;;5095579;28;20082;-73
2023/03/31 12:53:53;;;;;;;0.60;0.60;;;14.00;99.90;;;;;;5095821;28;20040;-72
2023/03/31 12:56:20;;;;;;;0.50;0.50;;;14.40;99.90;;;;;;5078635;28;20147;-74
2023/03/31 12:58:45;;;;;;;0.55;0.55;;;14.90;99.90;;;;;;5095346;28;20044;-74
2023/03/31 13:01:14;;;;;;;0.57;0.57;;;15.30;99.90;;;;;;5096981;28;20040;-73
2023/03/31 13:03:46;;;;;;;0.50;0.50;;;15.40;99.90;;;;;;5129572;27;20036;-73
2023/03/31 13:06:32;;;;;;;0.52;0.52;;;15.20;99.90;;;;;;5095623;28;20347;-74
2023/03/31 13:09:00;;;;;;;0.47;0.47;;;14.90;99.90;;;;;;5088239;28;20052;-72
2023/03/31 13:11:35;;;;;;;0.60;0.60;;;14.70;99.90;;;;;;5095500;28;20399;-71
2023/03/31 13:14:20;;;;;;;0.55;0.55;;;14.40;99.90;;;;;;5095230;28;20048;-70